createdAt,value
2019-03-23T00:00:01.659Z,29.17
2019-03-23T00:02:30.074Z,30.70
2019-03-23T00:04:58.520Z,30.30
2019-03-23T00:07:26.945Z,31.07
2019-03-23T00:09:55.389Z,29.97
2019-03-23T00:12:23.813Z,30.47
2019-03-23T00:14:52.257Z,30.00
2019-03-23T00:17:20.665Z,31.80
2019-03-23T00:19:49.114Z,28.87
2019-03-23T00:22:17.541Z,29.80
2019-03-23T00:24:45.984Z,31.40
2019-03-23T00:27:14.444Z,31.00
2019-03-23T00:29:42.892Z,32.30
2019-03-23T00:32:11.313Z,31.33
2019-03-23T00:34:39.757Z,30.77
2019-03-23T00:37:08.264Z,30.60
2019-03-23T00:39:36.704Z,30.67
2019-03-23T00:42:05.194Z,31.60
2019-03-23T00:44:33.643Z,32.73
2019-03-23T00:47:02.063Z,31.07
2019-03-23T00:49:30.528Z,29.60
2019-03-23T00:51:58.962Z,29.57
2019-03-23T00:54:27.403Z,30.30
2019-03-23T00:56:55.829Z,32.70
2019-03-23T00:59:24.278Z,31.93
2019-03-23T01:01:52.695Z,31.10
2019-03-23T01:04:21.143Z,31.23
2019-03-23T01:06:52.368Z,30.67
2019-03-23T01:09:19.924Z,30.97
2019-03-23T01:11:48.369Z,31.90
2019-03-23T01:14:16.864Z,33.07
2019-03-23T01:16:45.308Z,32.70
2019-03-23T01:19:13.718Z,32.97
2019-03-23T01:21:42.168Z,33.40
2019-03-23T01:24:10.607Z,31.23
2019-03-23T01:26:39.052Z,29.80
2019-03-23T01:29:07.473Z,30.40
2019-03-23T01:31:35.929Z,31.40
2019-03-23T01:34:04.353Z,29.83
2019-03-23T01:36:32.804Z,30.93
2019-03-23T01:39:01.230Z,31.03
2019-03-23T01:41:29.671Z,30.40
2019-03-23T01:43:58.090Z,31.67
2019-03-23T01:46:26.540Z,31.07
2019-03-23T01:48:54.959Z,33.40
2019-03-23T01:51:23.408Z,32.80
2019-03-23T01:53:51.832Z,32.33
2019-03-23T01:56:20.276Z,33.00
2019-03-23T01:58:48.705Z,29.97
2019-03-23T02:01:17.175Z,28.53
2019-03-23T02:03:45.590Z,32.57
2019-03-23T02:06:14.041Z,29.50
2019-03-23T02:08:42.463Z,30.43
2019-03-23T02:11:10.980Z,30.70
2019-03-23T02:13:39.403Z,29.77
2019-03-23T02:16:07.848Z,24.53
2019-03-23T02:18:36.336Z,27.60
2019-03-23T02:21:04.856Z,30.80
2019-03-23T02:23:33.275Z,24.20
2019-03-23T02:26:01.799Z,24.50
2019-03-23T02:28:30.291Z,22.10
2019-03-23T02:30:58.752Z,19.57
2019-03-23T02:33:27.196Z,20.47
2019-03-23T02:35:55.631Z,22.40
2019-03-23T02:38:24.037Z,19.10
2019-03-23T02:40:52.478Z,19.97
2019-03-23T02:43:20.890Z,20.37
2019-03-23T02:45:49.361Z,22.97
2019-03-23T02:48:17.769Z,21.83
2019-03-23T02:50:46.214Z,24.40
2019-03-23T02:53:14.634Z,22.90
2019-03-23T02:55:43.072Z,22.33
2019-03-23T02:58:11.489Z,18.50
2019-03-23T03:00:39.943Z,13.13
2019-03-23T03:03:08.366Z,13.27
2019-03-23T03:05:36.782Z,12.70
2019-03-23T03:08:05.239Z,11.80
2019-03-23T03:10:40.469Z,13.20
2019-03-23T03:13:09.065Z,11.23
2019-03-23T03:15:37.478Z,11.20
2019-03-23T03:18:06.963Z,13.13
2019-03-23T03:20:35.473Z,21.00
2019-03-23T03:23:03.967Z,16.77
2019-03-23T03:25:32.393Z,20.80
2019-03-23T03:28:00.853Z,12.93
2019-03-23T03:30:29.292Z,15.40
2019-03-23T03:32:57.713Z,18.13
2019-03-23T03:35:26.132Z,19.20
2019-03-23T03:37:56.944Z,23.50
2019-03-23T03:40:24.745Z,25.73
2019-03-23T03:42:53.201Z,21.13
2019-03-23T03:45:27.152Z,23.03
2019-03-23T03:47:55.602Z,23.90
2019-03-23T03:50:24.109Z,26.00
2019-03-23T03:52:52.559Z,30.63
2019-03-23T03:55:20.980Z,30.27
2019-03-23T03:57:49.468Z,28.37
2019-03-23T04:00:18.057Z,26.43
2019-03-23T04:02:46.509Z,27.03
2019-03-23T04:05:15.010Z,23.03
2019-03-23T04:07:43.526Z,23.47
2019-03-23T04:10:12.094Z,22.50
2019-03-23T04:12:40.543Z,21.77
2019-03-23T04:15:09.999Z,25.37
2019-03-23T04:17:38.419Z,22.40
2019-03-23T04:20:08.317Z,22.87
2019-03-23T04:22:36.730Z,24.40
2019-03-23T04:25:09.775Z,23.47
2019-03-23T04:27:38.197Z,22.30
2019-03-23T04:30:08.838Z,30.23
2019-03-23T04:32:37.261Z,24.83
2019-03-23T04:35:07.359Z,31.20
2019-03-23T04:37:35.781Z,31.03
2019-03-23T04:40:06.225Z,41.43
2019-03-23T04:42:34.643Z,32.43
2019-03-23T04:45:03.264Z,40.40
2019-03-23T04:47:31.685Z,33.93
2019-03-23T04:50:00.415Z,36.07
2019-03-23T04:52:28.927Z,31.83
2019-03-23T04:54:57.373Z,32.17
2019-03-23T04:57:25.803Z,32.90
2019-03-23T04:59:54.250Z,33.67
2019-03-23T05:02:22.671Z,31.90
2019-03-23T05:04:51.118Z,32.37
2019-03-23T05:07:19.548Z,27.53
2019-03-23T05:09:47.992Z,35.50
2019-03-23T05:12:16.416Z,32.87
2019-03-23T05:14:44.864Z,28.20
2019-03-23T05:17:13.357Z,31.27
2019-03-23T05:19:41.810Z,27.60
2019-03-23T05:22:10.229Z,35.40
2019-03-23T05:24:38.678Z,33.60
2019-03-23T05:27:07.108Z,30.33
2019-03-23T05:29:35.572Z,29.53
2019-03-23T05:32:03.992Z,31.60
2019-03-23T05:34:32.414Z,30.90
2019-03-23T05:37:00.867Z,31.10
2019-03-23T05:39:29.285Z,31.50
2019-03-23T05:41:57.728Z,32.23
2019-03-23T05:44:26.159Z,31.43
2019-03-23T05:46:54.599Z,33.93
2019-03-23T05:49:23.025Z,34.37
2019-03-23T05:51:51.542Z,37.57
2019-03-23T05:54:19.965Z,34.77
2019-03-23T05:56:48.407Z,34.27
2019-03-23T05:59:16.828Z,31.00
2019-03-23T06:01:45.269Z,31.93
2019-03-23T06:04:13.691Z,33.40
2019-03-23T06:06:42.143Z,25.33
2019-03-23T06:09:10.562Z,28.43
2019-03-23T06:11:39.000Z,22.07
2019-03-23T06:14:07.424Z,32.33
2019-03-23T06:16:35.877Z,28.20
2019-03-23T06:19:04.297Z,32.40
2019-03-23T06:21:32.754Z,36.17
2019-03-23T06:24:01.174Z,28.57
2019-03-23T06:26:29.625Z,33.87
2019-03-23T06:28:58.053Z,36.90
2019-03-23T06:31:26.506Z,43.13
2019-03-23T06:33:55.193Z,31.20
2019-03-23T06:36:23.642Z,40.43
2019-03-23T06:38:52.075Z,41.17
2019-03-23T06:41:20.526Z,48.33
2019-03-23T06:43:48.945Z,49.80
2019-03-23T06:46:17.390Z,40.33
2019-03-23T06:48:45.852Z,35.37
2019-03-23T06:51:14.272Z,38.83
2019-03-23T06:53:42.686Z,30.30
2019-03-23T06:56:11.133Z,44.43
2019-03-23T06:58:39.552Z,49.60
2019-03-23T07:01:08.011Z,49.83
2019-03-23T07:03:36.430Z,45.57
2019-03-23T07:06:04.923Z,39.07
2019-03-23T07:08:33.374Z,39.83
2019-03-23T07:11:01.793Z,49.87
2019-03-23T07:13:30.235Z,32.63
2019-03-23T07:15:58.654Z,35.20
2019-03-23T07:18:27.104Z,39.27
2019-03-23T07:20:55.530Z,32.13
2019-03-23T07:23:23.975Z,35.80
2019-03-23T07:25:52.389Z,19.23
2019-03-23T07:28:20.838Z,19.13
2019-03-23T07:30:49.268Z,22.13
2019-03-23T07:33:17.712Z,26.30
2019-03-23T07:35:46.132Z,21.33
2019-03-23T07:38:14.590Z,21.63
2019-03-23T07:40:42.993Z,21.93
2019-03-23T07:43:11.454Z,24.93
2019-03-23T07:45:39.867Z,23.23
2019-03-23T07:48:08.318Z,25.90
2019-03-23T07:50:36.737Z,24.87
2019-03-23T07:53:05.191Z,25.37
2019-03-23T07:55:33.616Z,33.70
2019-03-23T07:58:02.066Z,32.87
2019-03-23T08:00:30.492Z,26.43
2019-03-23T08:02:58.951Z,26.03
2019-03-23T08:05:27.354Z,31.00
2019-03-23T08:07:55.813Z,27.93
2019-03-23T08:10:31.431Z,28.27
2019-03-23T08:13:00.110Z,24.20
2019-03-23T08:15:28.626Z,24.90
2019-03-23T08:17:57.115Z,29.17
2019-03-23T08:20:25.735Z,23.90
2019-03-23T08:22:54.788Z,28.00
2019-03-23T08:25:23.246Z,28.50
2019-03-23T08:27:51.665Z,31.07
2019-03-23T08:30:20.114Z,25.50
2019-03-23T08:32:48.539Z,25.63
2019-03-23T08:35:16.985Z,13.60
2019-03-23T08:37:45.405Z,19.73
2019-03-23T08:40:13.996Z,13.93
2019-03-23T08:42:42.423Z,22.27
2019-03-23T08:45:10.942Z,21.57
2019-03-23T08:47:39.436Z,18.83
2019-03-23T08:50:08.354Z,19.40
2019-03-23T08:52:36.774Z,21.70
2019-03-23T08:55:05.859Z,21.77
2019-03-23T08:57:34.272Z,20.13
2019-03-23T09:00:02.715Z,17.00
2019-03-23T09:02:31.130Z,14.97
2019-03-23T09:04:59.576Z,22.90
2019-03-23T09:07:27.992Z,17.90
2019-03-23T09:09:59.460Z,23.30
2019-03-23T09:12:26.645Z,20.80
2019-03-23T09:14:55.089Z,17.77
2019-03-23T09:17:23.502Z,20.20
2019-03-23T09:19:51.951Z,20.37
2019-03-23T09:22:20.378Z,22.67
2019-03-23T09:24:48.818Z,16.00
2019-03-23T09:27:17.244Z,24.37
2019-03-23T09:29:45.686Z,25.77
2019-03-23T09:32:14.110Z,20.03
2019-03-23T09:34:42.569Z,25.23
2019-03-23T09:37:10.987Z,17.93
2019-03-23T09:39:40.756Z,20.27
2019-03-23T09:42:09.172Z,20.97
2019-03-23T09:44:37.595Z,28.37
2019-03-23T09:47:06.118Z,29.33
2019-03-23T09:49:34.535Z,22.67
2019-03-23T09:52:02.978Z,20.67
2019-03-23T09:54:31.396Z,22.60
2019-03-23T09:56:59.842Z,21.80
2019-03-23T09:59:28.264Z,23.90
2019-03-23T10:01:56.779Z,22.97
2019-03-23T10:04:25.206Z,26.07
2019-03-23T10:06:53.645Z,25.10
2019-03-23T10:09:22.064Z,28.53
2019-03-23T10:11:50.511Z,19.40
2019-03-23T10:14:18.926Z,21.40
2019-03-23T10:16:47.368Z,16.57
2019-03-23T10:19:15.784Z,22.60
2019-03-23T10:21:44.236Z,27.27
2019-03-23T10:24:12.651Z,23.53
2019-03-23T10:26:41.103Z,22.90
2019-03-23T10:29:09.524Z,24.47
2019-03-23T10:31:37.984Z,19.60
2019-03-23T10:34:06.401Z,25.13
2019-03-23T10:36:34.850Z,20.93
2019-03-23T10:39:04.946Z,25.30
2019-03-23T10:41:33.391Z,23.00
2019-03-23T10:44:01.822Z,26.90
2019-03-23T10:46:30.268Z,23.73
2019-03-23T10:48:58.687Z,20.07
2019-03-23T10:51:27.138Z,24.13
2019-03-23T10:53:55.564Z,25.37
2019-03-23T10:56:24.017Z,24.83
2019-03-23T10:58:52.430Z,23.50
2019-03-23T11:01:20.863Z,23.10
2019-03-23T11:03:49.301Z,23.97
2019-03-23T11:06:17.788Z,23.83
2019-03-23T11:08:46.228Z,23.53
2019-03-23T11:11:14.654Z,22.83
2019-03-23T11:13:43.095Z,21.23
2019-03-23T11:16:11.521Z,25.10
2019-03-23T11:18:39.972Z,21.00
2019-03-23T11:21:08.393Z,24.10
2019-03-23T11:23:36.844Z,22.37
2019-03-23T11:26:05.331Z,24.17
2019-03-23T11:28:33.777Z,23.73
2019-03-23T11:31:02.226Z,23.23
2019-03-23T11:33:30.676Z,19.20
2019-03-23T11:35:59.101Z,21.40
2019-03-23T11:38:27.550Z,23.43
2019-03-23T11:40:55.973Z,24.20
2019-03-23T11:43:24.426Z,24.37
2019-03-23T11:45:52.844Z,23.70
2019-03-23T11:48:21.291Z,21.87
2019-03-23T11:50:49.716Z,22.90
2019-03-23T11:53:18.162Z,23.90
2019-03-23T11:55:46.583Z,23.80
2019-03-23T11:58:15.157Z,22.73
2019-03-23T12:00:43.576Z,23.17
2019-03-23T12:03:11.997Z,24.07
2019-03-23T12:05:40.449Z,23.40
2019-03-23T12:08:08.870Z,24.70
2019-03-23T12:10:37.376Z,23.50
2019-03-23T12:13:05.800Z,23.87
2019-03-23T12:15:34.245Z,17.80
2019-03-23T12:18:02.716Z,22.37
2019-03-23T12:20:31.269Z,19.83
2019-03-23T12:22:59.770Z,26.07
2019-03-23T12:25:28.229Z,24.40
2019-03-23T12:27:56.645Z,28.63
2019-03-23T12:30:25.101Z,29.80
2019-03-23T12:32:53.528Z,30.07
2019-03-23T12:35:21.970Z,30.53
2019-03-23T12:37:50.403Z,29.90
2019-03-23T12:40:18.853Z,29.67
2019-03-23T12:42:47.282Z,29.77
2019-03-23T12:45:16.072Z,31.77
2019-03-23T12:47:44.509Z,30.30
2019-03-23T12:50:13.106Z,33.70
2019-03-23T12:52:41.530Z,33.10
2019-03-23T12:55:10.059Z,33.20
2019-03-23T12:57:38.620Z,33.83
2019-03-23T13:00:15.305Z,30.47
2019-03-23T13:02:43.724Z,31.57
2019-03-23T13:05:12.243Z,46.70
2019-03-23T13:07:40.737Z,31.97
2019-03-23T13:10:11.829Z,30.73
2019-03-23T13:12:40.257Z,30.77
2019-03-23T13:15:14.151Z,31.40
2019-03-23T13:17:42.576Z,30.90
2019-03-23T13:20:11.516Z,34.37
2019-03-23T13:22:40.114Z,31.97
2019-03-23T13:25:09.409Z,33.70
2019-03-23T13:27:38.004Z,33.10
2019-03-23T13:30:16.825Z,34.33
2019-03-23T13:32:45.317Z,35.00
2019-03-23T13:35:13.807Z,33.40
2019-03-23T13:37:42.260Z,35.43
2019-03-23T13:40:12.119Z,40.10
2019-03-23T13:42:40.646Z,33.60
2019-03-23T13:45:10.203Z,37.07
2019-03-23T13:47:39.662Z,37.23
2019-03-23T13:50:10.535Z,32.07
2019-03-23T13:52:39.043Z,21.63
2019-03-23T13:55:08.001Z,22.10
2019-03-23T13:57:36.527Z,19.00
2019-03-23T14:00:08.332Z,16.23
2019-03-23T14:02:36.856Z,22.17
2019-03-23T14:05:12.263Z,25.47
2019-03-23T14:07:36.137Z,19.73
2019-03-23T14:10:05.802Z,23.07
2019-03-23T14:12:34.262Z,29.93
2019-03-23T14:15:02.686Z,24.20
2019-03-23T14:17:31.144Z,25.43
2019-03-23T14:19:59.651Z,28.60
2019-03-23T14:22:28.110Z,30.13
2019-03-23T14:24:56.537Z,30.80
2019-03-23T14:27:25.053Z,22.80
2019-03-23T14:29:53.484Z,25.40
2019-03-23T14:32:21.944Z,27.87
2019-03-23T14:34:50.369Z,28.73
2019-03-23T14:37:18.819Z,27.17
2019-03-23T14:39:47.265Z,29.47
2019-03-23T14:42:15.726Z,28.97
2019-03-23T14:44:44.147Z,28.77
2019-03-23T14:47:12.594Z,19.90
2019-03-23T14:49:41.019Z,23.20
2019-03-23T14:52:09.469Z,38.20
2019-03-23T14:54:37.900Z,32.77
2019-03-23T14:57:06.361Z,28.80
2019-03-23T14:59:34.777Z,30.00
2019-03-23T15:02:03.209Z,29.07
2019-03-23T15:04:31.662Z,21.87
2019-03-23T15:07:00.091Z,22.43
2019-03-23T15:09:28.548Z,28.57
2019-03-23T15:11:56.972Z,24.33
2019-03-23T15:14:25.423Z,19.03
2019-03-23T15:16:53.836Z,21.30
2019-03-23T15:19:22.286Z,19.50
2019-03-23T15:21:50.715Z,20.23
2019-03-23T15:24:19.164Z,21.23
2019-03-23T15:26:47.581Z,16.87
2019-03-23T15:29:16.024Z,17.40
2019-03-23T15:31:44.463Z,17.83
2019-03-23T15:34:12.905Z,14.90
2019-03-23T15:36:41.329Z,17.97
2019-03-23T15:39:09.778Z,21.07
2019-03-23T15:41:38.205Z,22.13
2019-03-23T15:44:06.655Z,20.20
2019-03-23T15:46:35.069Z,17.53
2019-03-23T15:49:03.520Z,21.60
2019-03-23T15:51:31.938Z,20.70
2019-03-23T15:54:00.358Z,20.90
2019-03-23T15:56:28.801Z,19.97
2019-03-23T15:58:57.215Z,21.30
2019-03-23T16:01:25.670Z,20.67
2019-03-23T16:03:54.098Z,20.10
2019-03-23T16:06:22.605Z,23.20
2019-03-23T16:08:51.022Z,22.60
2019-03-23T16:11:19.474Z,21.03
2019-03-23T16:13:47.963Z,21.57
2019-03-23T16:16:16.413Z,25.93
2019-03-23T16:18:44.902Z,27.57
2019-03-23T16:21:13.365Z,25.30
2019-03-23T16:23:41.774Z,27.00
2019-03-23T16:26:10.233Z,24.30
2019-03-23T16:28:38.649Z,23.10
2019-03-23T16:31:07.095Z,23.67
2019-03-23T16:33:35.516Z,23.10
2019-03-23T16:36:04.036Z,23.13
2019-03-23T16:38:32.469Z,24.57
2019-03-23T16:41:00.913Z,22.50
2019-03-23T16:43:29.339Z,23.50
2019-03-23T16:45:57.796Z,23.23
2019-03-23T16:48:26.220Z,22.63
2019-03-23T16:50:54.695Z,21.17
2019-03-23T16:53:23.077Z,22.20
2019-03-23T16:55:51.515Z,21.80
2019-03-23T16:58:19.933Z,19.90
2019-03-23T17:00:48.383Z,22.93
2019-03-23T17:03:16.803Z,22.93
2019-03-23T17:05:45.250Z,21.73
2019-03-23T17:08:13.661Z,21.07
2019-03-23T17:10:42.109Z,21.40
2019-03-23T17:13:10.665Z,21.40
2019-03-23T17:15:39.145Z,22.07
2019-03-23T17:18:07.591Z,21.10
2019-03-23T17:20:36.075Z,20.70
2019-03-23T17:23:04.522Z,20.83
2019-03-23T17:25:33.003Z,20.30
2019-03-23T17:28:01.447Z,20.10
2019-03-23T17:30:29.860Z,23.03
2019-03-23T17:32:58.305Z,21.90
2019-03-23T17:35:26.722Z,22.10
2019-03-23T17:37:55.175Z,24.33
2019-03-23T17:40:23.601Z,24.20
2019-03-23T17:42:52.048Z,23.67
2019-03-23T17:45:20.474Z,25.67
2019-03-23T17:47:48.924Z,24.50
2019-03-23T17:50:17.412Z,24.90
2019-03-23T17:52:46.130Z,27.30
2019-03-23T17:55:14.547Z,26.03
2019-03-23T17:57:42.996Z,28.17
2019-03-23T18:00:11.855Z,28.27
2019-03-23T18:02:40.311Z,29.40
2019-03-23T18:05:08.873Z,26.80
2019-03-23T18:07:37.388Z,27.50
2019-03-23T18:10:07.390Z,29.40
2019-03-23T18:12:35.833Z,27.67
2019-03-23T18:15:06.798Z,28.30
2019-03-23T18:17:35.333Z,28.77
2019-03-23T18:20:04.197Z,31.33
2019-03-23T18:22:32.643Z,29.10
2019-03-23T18:25:01.083Z,31.20
2019-03-23T18:27:29.490Z,31.37
2019-03-23T18:29:57.939Z,28.37
2019-03-23T18:32:26.429Z,28.80
2019-03-23T18:34:54.882Z,28.97
2019-03-23T18:37:23.293Z,27.07
2019-03-23T18:39:51.737Z,27.37
2019-03-23T18:42:20.223Z,26.13
2019-03-23T18:44:48.671Z,25.37
2019-03-23T18:47:17.088Z,23.27
2019-03-23T18:49:45.529Z,20.10
2019-03-23T18:52:13.951Z,18.93
2019-03-23T18:54:42.463Z,18.30
2019-03-23T18:57:10.886Z,18.90
2019-03-23T18:59:39.341Z,18.90
2019-03-23T19:02:07.758Z,16.70
2019-03-23T19:04:36.203Z,14.53
2019-03-23T19:07:04.689Z,12.30
2019-03-23T19:09:33.134Z,10.80
2019-03-23T19:12:01.542Z,9.77
2019-03-23T19:14:29.990Z,8.67
2019-03-23T19:16:58.432Z,7.60
2019-03-23T19:19:26.872Z,4.63
2019-03-23T19:21:55.289Z,3.97
2019-03-23T19:24:23.726Z,4.37
2019-03-23T19:26:52.130Z,4.33
2019-03-23T19:29:20.576Z,4.27
2019-03-23T19:31:48.988Z,4.63
2019-03-23T19:34:17.436Z,4.20
2019-03-23T19:36:45.857Z,4.00
2019-03-23T19:39:14.296Z,4.03
2019-03-23T19:41:42.713Z,3.80
2019-03-23T19:44:11.213Z,3.70
2019-03-23T19:46:39.625Z,3.43
2019-03-23T19:49:08.038Z,4.00
2019-03-23T19:51:36.479Z,3.50
2019-03-23T19:54:04.891Z,3.37
2019-03-23T19:56:33.331Z,2.73
2019-03-23T19:59:01.745Z,3.07
2019-03-23T20:01:30.185Z,2.90
2019-03-23T20:03:58.609Z,3.63
2019-03-23T20:06:27.115Z,3.10
2019-03-23T20:08:55.535Z,3.83
2019-03-23T20:11:24.008Z,5.00
2019-03-23T20:13:58.774Z,4.87
2019-03-23T20:16:22.631Z,5.03
2019-03-23T20:18:51.042Z,3.93
2019-03-23T20:21:19.487Z,3.63
2019-03-23T20:23:47.901Z,2.47
2019-03-23T20:26:16.339Z,2.50
2019-03-23T20:28:44.754Z,2.20
2019-03-23T20:31:13.198Z,2.70
2019-03-23T20:33:41.607Z,2.17
2019-03-23T20:36:10.043Z,2.27
2019-03-23T20:38:38.450Z,3.20
2019-03-23T20:41:06.889Z,2.93
2019-03-23T20:43:35.307Z,3.10
2019-03-23T20:46:03.750Z,3.00
2019-03-23T20:48:32.161Z,2.90
2019-03-23T20:51:00.779Z,3.30
2019-03-23T20:53:29.189Z,3.50
2019-03-23T20:55:57.632Z,3.50
2019-03-23T20:58:26.042Z,2.50
2019-03-23T21:00:54.493Z,3.00
2019-03-23T21:03:22.913Z,2.73
2019-03-23T21:05:51.359Z,2.60
2019-03-23T21:08:19.774Z,3.00
2019-03-23T21:10:48.220Z,3.40
2019-03-23T21:13:16.635Z,3.37
2019-03-23T21:15:45.052Z,3.50
2019-03-23T21:18:13.489Z,3.17
2019-03-23T21:20:41.900Z,3.60
2019-03-23T21:23:10.339Z,3.63
2019-03-23T21:25:38.754Z,4.00
2019-03-23T21:28:07.196Z,3.13
2019-03-23T21:30:35.608Z,3.57
2019-03-23T21:33:04.113Z,3.20
2019-03-23T21:35:32.524Z,2.63
2019-03-23T21:38:00.968Z,2.70
2019-03-23T21:40:29.378Z,2.80
2019-03-23T21:42:57.822Z,3.77
2019-03-23T21:45:26.241Z,3.20
2019-03-23T21:47:54.680Z,3.40
2019-03-23T21:50:23.088Z,2.80
2019-03-23T21:52:51.598Z,3.43
2019-03-23T21:55:20.083Z,3.50
2019-03-23T21:57:48.520Z,2.93
2019-03-23T22:00:20.103Z,2.83
2019-03-23T22:02:48.544Z,3.07
2019-03-23T22:05:16.969Z,2.90
2019-03-23T22:07:45.450Z,3.63
2019-03-23T22:10:13.966Z,3.03
2019-03-23T22:12:42.378Z,3.60
2019-03-23T22:15:11.067Z,3.10
2019-03-23T22:17:39.473Z,3.10
2019-03-23T22:20:08.690Z,3.83
2019-03-23T22:22:37.171Z,3.73
2019-03-23T22:25:06.843Z,3.17
2019-03-23T22:27:36.893Z,3.17
2019-03-23T22:30:11.443Z,3.87
2019-03-23T22:32:39.867Z,3.70
2019-03-23T22:35:09.249Z,4.30
2019-03-23T22:37:37.655Z,3.70
2019-03-23T22:40:08.603Z,3.83
2019-03-23T22:42:37.012Z,4.40
2019-03-23T22:45:08.772Z,3.87
2019-03-23T22:47:37.254Z,4.37
2019-03-23T22:50:08.869Z,3.90
2019-03-23T22:52:37.357Z,4.33
2019-03-23T22:55:06.768Z,4.17
2019-03-23T22:57:35.187Z,4.20
2019-03-23T23:00:05.266Z,4.40
2019-03-23T23:02:33.676Z,4.00
2019-03-23T23:05:02.113Z,4.50
2019-03-23T23:07:30.600Z,5.40
2019-03-23T23:09:59.035Z,4.40
2019-03-23T23:12:27.454Z,5.30
2019-03-23T23:15:03.930Z,4.53
2019-03-23T23:17:26.015Z,3.70
2019-03-23T23:19:54.464Z,3.53
2019-03-23T23:22:22.877Z,3.33
2019-03-23T23:24:51.315Z,3.27
2019-03-23T23:27:19.727Z,3.80
2019-03-23T23:29:48.167Z,3.33
2019-03-23T23:32:16.587Z,3.37
2019-03-23T23:34:45.028Z,2.90
2019-03-23T23:37:13.447Z,3.20
2019-03-23T23:39:41.900Z,3.50
2019-03-23T23:42:10.319Z,3.80
2019-03-23T23:44:38.728Z,3.50
2019-03-23T23:47:07.170Z,4.00
2019-03-23T23:49:35.651Z,3.63
2019-03-23T23:52:04.156Z,4.07
2019-03-23T23:54:32.569Z,3.93
2019-03-23T23:57:01.017Z,3.87
2019-03-23T23:59:29.434Z,3.90
